createdAt,value
2023-04-10T00:00:26.354Z,77.40
2023-04-10T00:05:28.258Z,75.30
2023-04-10T00:10:31.759Z,77.70
2023-04-10T00:15:33.418Z,79.30
2023-04-10T00:20:35.142Z,103.50
2023-04-10T00:25:36.882Z,219.20
2023-04-10T00:30:38.536Z,90.20
2023-04-10T00:35:40.232Z,82.20
2023-04-10T00:40:42.041Z,71.50
2023-04-10T00:45:43.808Z,72.40
2023-04-10T00:50:46.514Z,74.10
2023-04-10T00:55:50.202Z,109.90
2023-04-10T01:00:51.927Z,93.90
2023-04-10T01:06:03.427Z,86.70
2023-04-10T01:21:37.137Z,71.80
2023-04-10T01:26:50.534Z,78.90
2023-04-10T01:31:57.436Z,77.20
2023-04-10T01:37:02.249Z,80.30
2023-04-10T01:42:06.453Z,83.10
2023-04-10T01:47:18.952Z,92.20
2023-04-10T01:52:21.454Z,93.50
2023-04-10T01:57:36.064Z,87.70
2023-04-10T02:02:38.096Z,87.30
2023-04-10T02:08:14.599Z,91.30
2023-04-10T02:13:21.764Z,85.60
2023-04-10T02:18:25.263Z,87.80
2023-04-10T02:23:28.407Z,84.90
2023-04-10T02:28:30.146Z,85.20
2023-04-10T02:33:32.889Z,88.00
2023-04-10T02:38:34.558Z,92.30
2023-04-10T02:43:36.514Z,94.90
2023-04-10T02:48:40.422Z,88.60
2023-04-10T02:53:42.144Z,103.90
2023-04-10T02:58:47.574Z,103.40
2023-04-10T03:03:49.624Z,111.40
2023-04-10T03:08:59.738Z,112.80
2023-04-10T03:14:02.336Z,115.30
2023-04-10T03:19:04.486Z,107.00
2023-04-10T03:24:07.233Z,112.10
2023-04-10T03:29:09.215Z,114.00
2023-04-10T03:34:11.007Z,111.50
2023-04-10T03:39:12.823Z,107.80
2023-04-10T03:44:14.493Z,110.10
2023-04-10T03:49:16.401Z,112.80
2023-04-10T03:54:18.588Z,102.80
2023-04-10T03:59:21.594Z,109.00
2023-04-10T04:07:12.072Z,114.50
2023-04-10T04:18:03.533Z,105.10
2023-04-10T04:23:15.451Z,110.40
2023-04-10T04:28:17.507Z,109.00
2023-04-10T04:33:38.113Z,122.70
2023-04-10T04:39:10.614Z,116.40
2023-04-10T04:44:24.908Z,121.50
2023-04-10T04:49:35.492Z,112.60
2023-04-10T04:54:50.852Z,107.40
2023-04-10T05:00:27.971Z,111.10
2023-04-10T05:05:43.104Z,104.00
2023-04-10T05:11:09.261Z,99.30
2023-04-10T05:16:47.570Z,97.50
2023-04-10T05:21:55.712Z,98.10
2023-04-10T05:27:05.409Z,98.00
2023-04-10T05:32:19.112Z,93.90
2023-04-10T05:37:37.427Z,101.10
2023-04-10T05:43:00.278Z,100.50
2023-04-10T05:48:11.764Z,99.40
2023-04-10T05:53:32.472Z,103.40
2023-04-10T05:58:37.101Z,98.90
2023-04-10T06:04:08.064Z,101.80
2023-04-10T06:09:11.463Z,106.30
2023-04-10T06:14:13.625Z,95.50
2023-04-10T06:19:17.362Z,107.60
2023-04-10T06:24:19.060Z,94.30
2023-04-10T06:29:22.005Z,104.70
2023-04-10T06:34:23.947Z,100.60
2023-04-10T06:39:33.126Z,112.70
2023-04-10T06:44:34.996Z,110.80
2023-04-10T06:49:36.710Z,107.00
2023-04-10T06:54:38.370Z,109.90
2023-04-10T06:59:40.214Z,96.20
2023-04-10T07:04:42.660Z,106.90
2023-04-10T07:09:44.434Z,103.10
2023-04-10T07:14:46.083Z,94.60
2023-04-10T07:19:47.737Z,103.20
2023-04-10T07:24:49.772Z,86.10
2023-04-10T07:29:55.395Z,90.10
2023-04-10T07:34:57.062Z,89.40
2023-04-10T07:39:58.863Z,93.30
2023-04-10T07:45:00.820Z,94.00
2023-04-10T07:50:02.497Z,88.90
2023-04-10T07:55:04.625Z,87.00
2023-04-10T08:00:09.495Z,99.10
2023-04-10T08:05:17.625Z,82.60
2023-04-10T08:10:19.537Z,84.10
2023-04-10T08:15:21.494Z,83.10
2023-04-10T08:20:23.279Z,70.40
2023-04-10T08:25:24.960Z,80.90
2023-04-10T08:30:26.661Z,73.60
2023-04-10T08:35:28.356Z,73.50
2023-04-10T08:40:30.110Z,64.70
2023-04-10T08:45:32.122Z,64.90
2023-04-10T08:50:36.196Z,68.10
2023-04-10T08:55:40.202Z,74.30
2023-04-10T09:00:43.660Z,58.40
2023-04-10T09:05:45.382Z,60.20
2023-04-10T09:10:47.074Z,60.80
2023-04-10T09:15:57.531Z,57.30
2023-04-10T09:21:07.179Z,61.30
2023-04-10T09:26:30.294Z,66.40
2023-04-10T09:31:36.983Z,66.10
2023-04-10T09:36:41.313Z,65.40
2023-04-10T09:41:49.362Z,65.40
2023-04-10T09:46:51.511Z,61.60
2023-04-10T09:51:53.312Z,56.50
2023-04-10T09:56:55.719Z,59.30
2023-04-10T10:01:57.829Z,64.70
2023-04-10T10:07:00.915Z,63.20
2023-04-10T10:12:04.088Z,64.10
2023-04-10T10:17:10.410Z,61.50
2023-04-10T10:22:13.170Z,52.60
2023-04-10T10:27:18.093Z,63.40
2023-04-10T10:32:21.900Z,60.60
2023-04-10T10:37:23.909Z,64.60
2023-04-10T10:42:36.425Z,55.30
2023-04-10T10:47:46.115Z,56.50
2023-04-10T10:52:49.884Z,51.90
2023-04-10T10:57:53.318Z,48.70
2023-04-10T11:03:13.359Z,54.30
2023-04-10T11:08:15.383Z,51.00
2023-04-10T11:13:18.496Z,53.10
2023-04-10T11:18:21.064Z,49.70
2023-04-10T11:23:22.767Z,54.80
2023-04-10T11:28:30.694Z,54.80
2023-04-10T11:33:32.476Z,48.00
2023-04-10T11:38:34.416Z,42.30
2023-04-10T11:43:36.250Z,45.10
2023-04-10T11:48:38.337Z,40.50
2023-04-10T11:53:41.326Z,44.80
2023-04-10T11:58:43.277Z,44.80
2023-04-10T12:03:45.167Z,38.40
2023-04-10T12:08:51.686Z,33.00
2023-04-10T12:13:55.015Z,39.40
2023-04-10T12:18:57.126Z,42.00
2023-04-10T12:23:59.133Z,42.40
2023-04-10T12:29:00.901Z,35.90
2023-04-10T12:34:05.255Z,36.20
2023-04-10T12:39:23.193Z,36.40
2023-04-10T12:44:24.888Z,35.10
2023-04-10T12:49:26.516Z,31.00
2023-04-10T12:54:33.913Z,33.40
2023-04-10T12:59:35.977Z,30.30
2023-04-10T13:04:37.795Z,34.20
2023-04-10T13:09:39.586Z,31.50
2023-04-10T13:14:41.491Z,28.40
2023-04-10T13:19:43.176Z,25.20
2023-04-10T13:24:45.240Z,28.90
2023-04-10T13:29:46.899Z,26.90
2023-04-10T13:34:48.583Z,24.00
2023-04-10T13:39:50.366Z,26.10
2023-04-10T13:44:52.091Z,27.30
2023-04-10T13:49:53.728Z,28.40
2023-04-10T13:54:55.442Z,26.90
2023-04-10T13:59:57.133Z,28.10
2023-04-10T14:04:58.827Z,31.10
2023-04-10T14:10:01.826Z,27.10
2023-04-10T14:15:03.814Z,24.70
2023-04-10T14:20:06.359Z,27.60
2023-04-10T14:25:13.653Z,26.50
2023-04-10T14:30:15.784Z,25.00
2023-04-10T14:35:17.546Z,26.80
2023-04-10T14:40:19.169Z,25.60
2023-04-10T14:45:21.029Z,26.00
2023-04-10T14:50:22.874Z,23.60
2023-04-10T14:55:25.242Z,21.80
2023-04-10T15:00:27.179Z,26.20
2023-04-10T15:05:29.025Z,23.50
2023-04-10T15:10:30.868Z,23.60
2023-04-10T15:15:32.714Z,22.00
2023-04-10T15:20:34.417Z,21.20
2023-04-10T15:25:36.124Z,23.10
2023-04-10T15:30:37.885Z,22.40
2023-04-10T15:35:39.565Z,22.30
2023-04-10T15:40:41.297Z,21.50
2023-04-10T15:45:43.096Z,18.90
2023-04-10T15:50:44.778Z,20.30
2023-04-10T15:55:46.494Z,20.30
2023-04-10T16:00:48.523Z,19.10
2023-04-10T16:05:50.313Z,19.80
2023-04-10T16:10:53.038Z,21.90
2023-04-10T16:15:56.216Z,17.70
2023-04-10T16:20:57.875Z,23.30
2023-04-10T16:25:59.569Z,19.30
2023-04-10T16:31:01.369Z,21.60
2023-04-10T16:36:04.751Z,21.20
2023-04-10T16:41:06.708Z,21.70
2023-04-10T16:46:08.461Z,21.90
2023-04-10T16:51:17.677Z,21.60
2023-04-10T16:56:19.467Z,21.40
2023-04-10T17:01:25.955Z,20.60
2023-04-10T17:06:27.780Z,23.00
2023-04-10T17:11:29.546Z,22.60
2023-04-10T17:16:31.374Z,21.30
2023-04-10T17:21:33.885Z,21.90
2023-04-10T17:26:35.942Z,26.30
2023-04-10T17:31:37.776Z,25.60
2023-04-10T17:36:39.607Z,42.60
2023-04-10T17:41:41.276Z,32.70
2023-04-10T17:46:43.096Z,16.40
2023-04-10T17:51:44.768Z,20.30
2023-04-10T17:56:46.468Z,25.60
2023-04-10T18:01:48.374Z,39.40
2023-04-10T18:06:52.314Z,35.70
2023-04-10T18:11:53.977Z,24.40
2023-04-10T18:16:55.710Z,31.80
2023-04-10T18:21:57.452Z,28.80
2023-04-10T18:26:59.109Z,36.70
2023-04-10T18:32:00.771Z,28.80
2023-04-10T18:37:02.597Z,25.50
2023-04-10T18:42:07.486Z,25.70
2023-04-10T18:47:11.108Z,28.60
2023-04-10T18:52:12.923Z,38.60
2023-04-10T18:57:14.634Z,59.20
2023-04-10T19:02:27.911Z,44.10
2023-04-10T19:07:29.747Z,39.80
2023-04-10T19:12:34.393Z,42.60
2023-04-10T19:17:36.087Z,83.00
2023-04-10T19:22:37.904Z,85.60
2023-04-10T19:27:40.793Z,103.80
2023-04-10T19:32:42.464Z,52.60
2023-04-10T19:37:44.377Z,61.20
2023-04-10T19:42:46.157Z,196.50
2023-04-10T19:47:50.642Z,154.00
2023-04-10T19:52:52.469Z,154.60
2023-04-10T19:57:54.880Z,152.80
2023-04-10T20:02:56.795Z,165.70
2023-04-10T20:07:58.572Z,167.20
2023-04-10T20:13:00.180Z,160.90
2023-04-10T20:18:02.267Z,192.80
2023-04-10T20:23:04.039Z,163.50
2023-04-10T20:28:06.294Z,118.00
2023-04-10T20:33:07.999Z,83.30
2023-04-10T20:38:09.880Z,100.10
2023-04-10T20:43:12.284Z,93.60
2023-04-10T20:48:13.997Z,79.40
2023-04-10T20:53:16.048Z,96.40
2023-04-10T20:58:17.761Z,86.50
2023-04-10T21:03:20.049Z,83.40
2023-04-10T21:08:22.355Z,87.20
2023-04-10T21:13:27.771Z,186.20
2023-04-10T21:18:29.494Z,92.70
2023-04-10T21:23:31.217Z,86.10
2023-04-10T21:28:33.336Z,120.10
2023-04-10T21:33:35.392Z,114.60
2023-04-10T21:38:37.215Z,74.50
2023-04-10T21:43:39.927Z,75.70
2023-04-10T21:48:43.632Z,119.30
2023-04-10T21:53:47.377Z,110.50
2023-04-10T21:58:49.057Z,139.20
2023-04-10T22:03:50.956Z,112.50
2023-04-10T22:08:53.215Z,113.60
2023-04-10T22:13:56.370Z,112.80
2023-04-10T22:19:00.243Z,136.70
2023-04-10T22:24:02.020Z,146.60
2023-04-10T22:29:04.125Z,125.50
2023-04-10T22:34:05.851Z,128.30
2023-04-10T22:39:08.055Z,119.00
2023-04-10T22:44:09.875Z,120.30
2023-04-10T22:49:11.547Z,124.00
2023-04-10T22:54:13.401Z,120.40
2023-04-10T22:59:15.535Z,130.60
2023-04-10T23:04:17.296Z,135.80
2023-04-10T23:09:19.899Z,129.20
2023-04-10T23:14:28.119Z,155.40
2023-04-10T23:19:29.814Z,135.30
2023-04-10T23:24:31.466Z,142.90
2023-04-10T23:29:33.562Z,94.20
2023-04-10T23:34:35.367Z,114.90
2023-04-10T23:39:37.836Z,119.40
2023-04-10T23:44:40.489Z,124.50
2023-04-10T23:49:48.622Z,104.10
2023-04-10T23:54:50.596Z,153.80
2023-04-10T23:59:53.125Z,123.40
